Mesquite's Hourly Summary for Friday, March 17, 2017
Hour Temp
(f)
RH
(%)
Solar Rad.
(MJ/m2)
Rainfall
(in)
Wind
(mph)
3/17/2017 12:00 AM 65 81 0 0 7.78
3/17/2017 1:00 AM 64 84 0 0 7.13
3/17/2017 2:00 AM 63 87 0 0 8.29
3/17/2017 3:00 AM 65 82 0 0 8.41
3/17/2017 4:00 AM 66 80 0 0 9.06
3/17/2017 5:00 AM 66 79 0 0 9.4
3/17/2017 6:00 AM 67 77 0 0 10.12
3/17/2017 7:00 AM 67 75 0 0 9.16
3/17/2017 8:00 AM 67 74 0.01 0 10.7
3/17/2017 9:00 AM 67 75 0.16 0 9.79
3/17/2017 10:00 AM 68 75 0.31 0 8.53
3/17/2017 11:00 AM 68 73 0.51 0 9.19
3/17/2017 12:00 PM 70 72 0.86 0 10.53
3/17/2017 1:00 PM 71 70 1.34 0 11.99
3/17/2017 2:00 PM 71 70 1 0 12
3/17/2017 3:00 PM 71 72 0.78 0 9.63
3/17/2017 4:00 PM 72 67 1.39 0 11.6
3/17/2017 5:00 PM 73 67 0.74 0 8.84
3/17/2017 6:00 PM 74 61 0.42 0 8.46
3/17/2017 7:00 PM 75 60 0.17 0 7
3/17/2017 8:00 PM 74 61 0.02 0 5.88
3/17/2017 9:00 PM 74 62 0 0 4.61
3/17/2017 10:00 PM 73 62 0 0 4.28
3/17/2017 11:00 PM 71 64 0 0 4.11
Data Summary 69 72 7.71 0.00 8.60